Latest Weather Observations for Edinburgh

IDS60801

Issued at 9:05 pm CDT Saturday 1 November 2014 (issued every 30 minutes, with the page automatically refreshed every 10 minutes)

About weather observations | Map of weather stations | Latest weather observations for SA | Other Formats
Station Details ID: 023083 Name: EDINBURGH RAAF Lat: -34.71 Lon: 138.62 Height: 16.54 m
Data from the previous 72 hours. | See also: Recent months at Edinburgh
Date/Time
CDT
Temp
°C
App
Temp
°C
Dew
Point
Rel
Hum
%
Delta-T
°C
Wind Press
QNH
hPa
Press
MSL
hPa
Rain
since 9 am
mm
Dir
 
Spd
km/h
Gust
km/h
Spd
kts
Gust
kts
01/09:00pm 13.7 8.2 2.0 45 5.1 S 20 26 11 14 1022.5 1022.4 0.0
01/08:30pm 13.5 8.3 2.4 47 4.8 S 19 28 10 15 1022.0 1021.9 0.0
01/08:00pm 13.9 8.1 2.2 45 5.1 S 22 33 12 18 1021.5 1021.4 0.0
01/07:30pm 14.4 7.8 2.3 44 5.3 S 26 33 14 18 1020.9 1020.8 0.0
01/07:00pm 14.8 7.8 2.0 42 5.6 S 28 39 15 21 1020.6 1020.5 0.0
01/06:30pm 15.6 7.7 1.3 38 6.2 S 32 46 17 25 1020.1 1020.0 0.0
01/06:00pm 15.8 8.1 2.2 40 6.0 S 32 46 17 25 1019.7 1019.6 0.0
01/05:30pm 16.2 7.5 2.2 39 6.2 S 37 44 20 24 1019.4 1019.3 0.0
01/05:00pm 16.8 8.5 2.4 38 6.5 S 35 48 19 26 1019.1 1019.0 0.0
01/04:53pm 17.3 9.4 2.5 37 6.7 S 33 52 18 28 1019.0 1018.9 0.0
01/04:30pm 17.4 8.7 2.2 36 6.9 S 37 50 20 27 1018.8 1018.7 0.0
01/04:13pm 17.3 9.1 0.5 32 7.3 SSW 33 52 18 28 1018.4 1018.3 0.0
01/04:09pm 16.9 8.0 0.5 33 7.1 SSW 37 44 20 24 1018.5 1018.4 0.0
01/04:06pm 17.9 9.5 1.4 33 7.4 SW 35 44 19 24 1018.4 1018.3 0.0
01/04:00pm 17.6 8.7 0.7 32 7.4 S 37 52 20 28 1018.4 1018.3 0.0
01/03:30pm 17.4 8.5 0.6 32 7.3 SSW 37 52 20 28 1018.1 1018.0 0.0
01/03:00pm 17.4 8.3 1.8 35 7.0 SSW 39 54 21 29 1018.1 1018.0 0.0
01/02:30pm 18.8 10.3 3.0 35 7.3 SSW 37 50 20 27 1017.8 1017.7 0.0
01/02:00pm 17.8 8.2 0.9 32 7.5 SSW 41 56 22 30 1017.8 1017.7 0.0
01/01:30pm 17.6 7.9 0.7 32 7.4 SSW 41 59 22 32 1017.7 1017.6 0.0
01/01:29pm 17.2 7.5 0.4 32 7.3 SSW 41 59 22 32 1017.6 1017.5 0.0
01/01:00pm 16.8 7.0 2.0 37 6.6 SSW 43 54 23 29 1017.5 1017.4 0.0
01/12:30pm 16.4 7.3 3.8 43 5.8 SSW 41 56 22 30 1017.4 1017.3 0.0
01/12:00pm 15.9 6.5 4.3 46 5.4 SSW 43 50 23 27 1017.2 1017.1 0.0
01/11:58am 16.4 7.4 4.4 45 5.6 SSW 41 50 22 27 1017.2 1017.1 0.0
01/11:54am 16.5 7.4 3.9 43 5.9 WSW 41 46 22 25 1017.1 1017.0 0.0
01/11:30am 15.6 7.2 5.5 51 4.8 SSW 39 48 21 26 1017.0 1016.9 0.0
01/11:00am 16.5 8.1 5.5 48 5.3 SSW 39 50 21 27 1016.8 1016.7 0.0
01/10:30am 15.5 6.4 3.9 46 5.3 SW 41 54 22 29 1016.5 1016.4 0.0
01/10:00am 15.1 6.3 5.6 53 4.5 SSW 41 52 22 28 1016.0 1015.9 0.0
01/09:30am 15.2 5.8 5.4 52 4.6 SSW 44 57 24 31 1015.4 1015.3 0.0
01/09:19am 15.6 7.0 6.6 55 4.4 SSW 41 61 22 33 1015.2 1015.1 0.0
01/09:00am 15.1 7.1 7.4 60 3.8 SSW 39 54 21 29 1014.9 1014.8 -
01/08:30am 14.2 6.2 7.5 64 3.3 SSW 39 61 21 33 1014.2 1014.1 -
01/08:26am 14.5 7.7 7.8 64 3.3 SSW 33 54 18 29 1014.0 1013.9 -
01/08:00am 14.2 7.4 7.5 64 3.3 SSW 33 43 18 23 1013.5 1013.4 -
01/07:30am 13.6 5.5 7.2 65 3.1 SSW 39 50 21 27 1012.9 1012.8 -
01/07:00am 13.5 6.8 7.3 66 3.0 SW 32 41 17 22 1012.3 1012.2 -
01/06:39am 13.1 6.1 6.2 63 3.3 SSW 32 52 17 28 1011.8 1011.7 -
01/06:30am 12.9 6.0 6.3 64 3.1 SSW 32 41 17 22 1011.8 1011.7 -
01/06:00am 13.0 6.6 7.0 67 2.9 SSW 30 39 16 21 1011.1 1011.0 -
01/05:30am 12.3 5.4 6.6 68 2.7 SSW 32 44 17 24 1010.5 1010.4 -
01/05:00am 12.8 5.6 7.7 71 2.5 SSW 35 48 19 26 1010.0 1009.9 -
01/04:30am 13.5 6.4 9.7 78 2.0 SSW 37 52 20 28 1009.4 1009.3 -
01/04:02am 13.6 6.7 11.5 87 1.1 SSW 39 50 21 27 1008.8 1008.7 -
01/04:00am 13.7 7.2 11.6 87 1.1 SSW 37 50 20 27 1008.7 1008.6 -
01/03:46am 13.6 7.5 11.8 89 1.0 SSW 35 46 19 25 1008.4 1008.4 -
01/03:40am 13.8 7.1 12.4 91 0.8 SSW 39 46 21 25 1008.2 1008.2 -
01/03:38am 13.9 7.2 12.3 90 0.9 SSW 39 46 21 25 1008.1 1008.1 -
01/03:30am 14.0 7.7 12.4 90 0.9 SW 37 50 20 27 1007.9 1007.9 -
01/03:29am 14.2 8.0 12.8 91 0.8 SW 37 50 20 27 1007.9 1007.9 -
01/03:28am 14.2 8.0 12.6 90 0.9 SW 37 50 20 27 1007.8 1007.8 -
01/03:22am 14.4 8.9 12.4 88 1.1 SW 33 43 18 23 1007.7 1007.7 -
01/03:00am 14.2 8.0 12.6 90 0.9 SW 37 44 20 24 1007.6 1007.6 -
01/02:55am 14.2 7.5 12.4 89 1.0 SW 39 44 21 24 1007.6 1007.6 -
01/02:45am 14.2 9.2 12.2 88 1.1 WSW 30 39 16 21 1007.6 1007.6 -
01/02:30am 14.9 10.6 11.9 82 1.6 W 26 39 14 21 1007.5 1007.5 -
01/02:00am 15.3 - 11.7 79 1.9 - - - - - 1007.4 1007.4 -
01/01:30am 15.1 9.6 11.7 80 1.8 SW 32 41 17 22 1007.6 1007.6 1.6
01/01:00am 15.5 10.2 12.6 83 1.6 WSW 32 43 17 23 1007.5 1007.5 1.4
01/12:54am 15.4 9.4 12.2 81 1.7 SW 35 41 19 22 1007.4 1007.4 1.4
01/12:30am 15.3 13.0 13.1 87 1.2 SW 17 22 9 12 1007.4 1007.4 1.4
01/12:00am 15.7 15.2 13.7 88 1.1 WSW 9 13 5 7 1007.3 1007.3 1.2
 
Date/Time
CDT
Temp
°C
App
Temp
°C
Dew
Point
Rel
Hum
%
Delta-T
°C
Wind Press
QNH
hPa
Press
MSL
hPa
Rain
since 9 am
mm
Dir
 
Spd
km/h
Gust
km/h
Spd
kts
Gust
kts
31/11:30pm 15.5 14.0 13.2 86 1.3 SW 13 17 7 9 1006.4 1006.4 0.8
31/11:00pm 15.6 13.8 13.3 86 1.3 WSW 15 19 8 10 1006.4 1006.4 0.6
31/10:30pm 15.9 14.5 13.4 85 1.4 SSW 13 17 7 9 1005.2 1005.2 0.6
31/10:00pm 16.7 15.0 13.6 82 1.7 SSW 15 22 8 12 1006.1 1006.1 0.2
31/09:30pm 17.1 15.1 14.0 82 1.8 S 17 22 9 12 1005.9 1005.9 0.0
31/09:00pm 17.9 13.9 13.0 73 2.8 SSW 26 33 14 18 1006.2 1006.2 0.0
31/08:30pm 18.0 11.2 13.1 73 2.8 SSW 41 52 22 28 1005.6 1005.6 0.0
31/08:00pm 18.3 13.4 14.4 78 2.2 SW 33 44 18 24 1004.9 1004.9 0.0
31/07:30pm 18.3 13.9 14.0 76 2.5 SSW 30 37 16 20 1003.5 1003.5 0.0
31/07:00pm 20.3 14.2 13.0 63 4.1 SSW 37 48 20 26 1002.3 1002.3 0.0
31/06:30pm 23.3 18.2 10.7 45 7.0 SSW 28 39 15 21 1001.7 1001.7 0.0
31/06:00pm 24.3 18.2 9.8 40 8.0 SSW 32 41 17 22 1001.3 1001.3 0.0
31/05:30pm 24.7 18.4 9.8 39 8.2 SSW 33 44 18 24 1000.6 1000.6 0.0
31/05:00pm 25.6 18.7 9.0 35 9.0 SSW 35 43 19 23 1000.3 1000.3 0.0
31/04:30pm 25.6 17.2 5.8 28 10.2 SSW 39 56 21 30 1000.1 1000.1 0.0
31/04:00pm 29.3 22.4 7.2 25 11.9 SSW 33 41 18 22 999.6 999.6 0.0
31/03:30pm 33.2 25.1 3.1 15 15.5 SW 35 41 19 22 999.6 999.6 0.0
31/03:00pm 33.0 25.8 0.9 13 16.0 NW 28 32 15 17 1000.2 1000.2 0.0
31/02:30pm 33.9 26.1 2.7 14 16.1 WSW 33 44 18 24 1000.9 1000.9 0.0
31/02:00pm 34.0 25.4 2.8 14 16.0 W 37 48 20 26 1001.2 1001.2 0.0
31/01:45pm 33.3 23.9 2.2 14 15.8 W 41 52 22 28 1001.2 1001.2 0.0
31/01:30pm 34.8 24.8 1.2 12 17.0 WNW 43 56 23 30 1001.0 1001.0 0.0
31/01:00pm 35.1 25.0 1.5 12 17.0 WNW 44 56 24 30 1001.0 1001.0 0.0
31/12:50pm 35.9 25.5 2.1 12 17.4 WNW 46 56 25 30 1001.0 1001.0 0.0
31/12:32pm 36.1 26.5 1.0 11 17.7 NNW 41 61 22 33 1001.4 1001.4 0.0
31/12:30pm 36.5 26.9 1.3 11 18.0 NNW 41 56 22 30 1001.4 1001.4 0.0
31/12:00pm 35.6 26.3 0.6 11 17.6 NNW 39 50 21 27 1002.0 1002.0 0.0
31/11:30am 34.5 27.0 1.0 12 16.8 NNW 30 43 16 23 1002.6 1002.6 0.0
31/11:00am 31.9 25.0 0.1 13 15.4 NNE 26 35 14 19 1003.3 1003.3 0.0
31/10:30am 29.9 21.6 -0.5 14 14.4 NE 33 43 18 23 1003.7 1003.7 0.0
31/10:00am 28.7 20.5 0.4 16 13.5 NE 33 44 18 24 1004.1 1004.1 0.0
31/09:30am 28.0 19.4 -0.1 16 13.3 NNE 35 43 19 23 1004.7 1004.7 0.0
31/09:00am 27.2 18.7 0.8 18 12.6 NE 35 50 19 27 1005.0 1005.0 0.0
31/08:30am 24.1 16.3 1.7 23 10.6 NE 32 41 17 22 1005.3 1005.3 0.0
31/08:00am 23.6 15.2 1.3 23 10.4 NE 35 46 19 25 1005.5 1005.5 0.0
31/07:30am 22.5 14.8 2.1 26 9.6 NE 32 41 17 22 1005.6 1005.6 0.0
31/07:00am 21.2 13.9 2.5 29 8.8 NE 30 37 16 20 1005.6 1005.6 0.0
31/06:30am 20.7 13.4 2.5 30 8.5 NE 30 37 16 20 1005.9 1005.9 0.0
31/06:00am 21.1 14.6 2.4 29 8.8 NE 26 35 14 19 1005.9 1005.9 0.0
31/05:45am 20.4 15.3 3.2 32 8.1 NE 19 28 10 15 1006.0 1006.0 0.0
31/05:30am 15.3 12.6 5.8 53 4.6 NE 9 15 5 8 1006.2 1006.2 0.0
31/05:00am 14.8 12.7 6.6 58 4.0 ENE 7 9 4 5 1006.7 1006.7 0.0
31/04:30am 13.7 11.3 7.2 65 3.2 ENE 9 11 5 6 1007.3 1007.3 0.0
31/04:00am 12.4 9.7 7.3 71 2.5 NNE 11 13 6 7 1007.4 1007.4 0.0
31/03:30am 12.8 11.0 7.0 68 2.8 NW 6 9 3 5 1007.8 1007.8 0.0
31/03:00am 13.1 12.3 6.7 65 3.1 CALM 0 0 0 0 1008.0 1008.0 0.0
31/02:30am 14.0 12.1 6.6 61 3.6 NE 6 7 3 4 1008.2 1008.2 0.0
31/02:00am 13.1 11.6 6.7 65 3.1 NNE 4 11 2 6 1009.0 1008.9 0.0
31/01:30am 13.7 11.3 6.8 63 3.3 SW 9 11 5 6 1009.7 1009.6 0.0
31/01:00am 14.0 11.6 6.8 62 3.5 NW 9 15 5 8 1009.9 1009.8 0.0
31/12:30am 14.3 12.1 6.2 58 3.9 N 7 11 4 6 1010.2 1010.1 0.0
31/12:00am 15.7 14.6 5.3 50 5.0 CALM 0 6 0 3 1010.5 1010.4 0.0
 
Date/Time
CDT
Temp
°C
App
Temp
°C
Dew
Point
Rel
Hum
%
Delta-T
°C
Wind Press
QNH
hPa
Press
MSL
hPa
Rain
since 9 am
mm
Dir
 
Spd
km/h
Gust
km/h
Spd
kts
Gust
kts
30/11:30pm 15.8 13.1 5.7 51 4.9 NNE 9 11 5 6 1010.9 1010.8 0.0
30/11:00pm 15.9 12.9 6.1 52 4.7 NNE 11 17 6 9 1011.4 1011.3 0.0
30/10:30pm 16.2 13.8 4.3 45 5.6 E 6 7 3 4 1011.7 1011.6 0.0
30/10:00pm 16.9 15.8 4.9 45 5.7 CALM 0 4 0 2 1011.9 1011.8 0.0
30/09:30pm 17.9 15.6 4.8 42 6.3 S 6 6 3 3 1012.0 1011.9 0.0
30/09:00pm 17.8 15.4 4.4 41 6.4 SSW 6 7 3 4 1011.9 1011.8 0.0
30/08:30pm 18.3 15.2 3.8 38 6.8 SSW 9 9 5 5 1011.7 1011.6 0.0
30/08:00pm 19.7 16.9 2.1 31 8.1 S 6 7 3 4 1011.4 1011.3 0.0
30/07:30pm 21.8 18.5 2.5 28 9.1 S 9 11 5 6 1011.3 1011.2 0.0
30/07:00pm 22.9 19.2 4.4 30 9.1 S 13 17 7 9 1011.5 1011.4 0.0
30/06:30pm 23.4 18.9 4.4 29 9.4 SSW 17 20 9 11 1011.5 1011.4 0.0
30/06:00pm 23.6 19.2 4.5 29 9.5 SSW 17 22 9 12 1011.8 1011.7 0.0
30/05:30pm 24.4 19.5 1.9 23 10.7 SSW 17 22 9 12 1012.0 1011.9 0.0
30/05:00pm 23.6 18.0 5.5 31 9.1 SSW 24 30 13 16 1012.2 1012.1 0.0
30/04:30pm 24.4 18.8 7.1 33 9.0 SW 26 30 14 16 1012.2 1012.1 0.0
30/04:00pm 26.8 22.0 5.7 26 10.9 SW 20 24 11 13 1011.9 1011.8 0.0
30/03:30pm 26.6 23.3 2.5 21 11.8 WSW 9 17 5 9 1012.2 1012.1 0.0
30/03:00pm 25.7 22.9 5.3 27 10.4 WSW 9 15 5 8 1012.9 1012.8 0.0
30/02:30pm 25.6 22.6 9.4 36 8.9 WSW 15 20 8 11 1013.4 1013.3 0.0
30/02:00pm 24.6 20.9 9.3 38 8.3 SW 19 28 10 15 1013.9 1013.8 0.0
30/01:30pm 23.8 19.5 9.4 40 7.8 SW 22 30 12 16 1014.2 1014.1 0.0
30/01:00pm 22.7 18.1 11.1 48 6.4 SSW 26 30 14 16 1014.4 1014.3 0.0
30/12:30pm 24.2 20.8 6.0 31 9.3 NW 13 19 7 10 1014.7 1014.6 0.0
30/12:00pm 23.4 21.3 8.3 38 8.0 NNW 9 17 5 9 1015.1 1015.0 0.0
30/11:30am 21.8 19.4 7.2 39 7.5 NW 9 17 5 9 1015.8 1015.7 0.0
30/11:00am 20.8 19.2 8.8 46 6.3 E 7 9 4 5 1016.1 1016.0 0.0
30/10:30am 20.7 18.5 9.3 48 6.1 ENE 11 20 6 11 1016.1 1016.0 0.0
30/10:00am 18.9 17.5 9.4 54 5.0 ENE 7 13 4 7 1016.1 1016.0 0.0
30/09:30am 17.8 16.7 9.9 60 4.2 ESE 6 13 3 7 1016.5 1016.4 0.0
30/09:00am 16.6 15.4 10.2 66 3.4 SE 7 11 4 6 1016.8 1016.7 0.0
30/08:30am 14.9 13.7 9.7 71 2.7 S 6 11 3 6 1017.2 1017.1 0.0
30/08:00am 13.4 11.9 9.1 75 2.2 NNE 7 9 4 5 1017.0 1016.9 0.0
30/07:30am 12.2 10.8 8.7 79 1.7 ESE 6 7 3 4 1016.8 1016.7 0.0
30/07:00am 10.3 7.5 8.6 89 0.8 NE 13 17 7 9 1015.9 1015.8 0.0
30/06:30am 8.8 6.1 7.4 91 0.7 NNE 11 13 6 7 1015.8 1015.7 0.0
30/06:00am 9.6 8.6 7.4 86 1.0 E 2 7 1 4 1015.8 1015.7 0.0
30/05:30am 10.0 8.3 8.4 90 0.8 SSW 7 13 4 7 1016.4 1016.3 0.0
30/05:00am 9.7 8.0 7.6 87 1.0 NNE 6 7 3 4 1016.0 1015.9 0.0
30/04:30am 10.5 8.9 8.6 88 0.9 NE 7 9 4 5 1015.5 1015.4 0.0
30/04:00am 10.6 8.9 8.2 85 1.2 NE 7 11 4 6 1015.6 1015.5 0.0
30/03:30am 11.0 8.8 8.0 82 1.5 ENE 9 13 5 7 1015.5 1015.4 0.0
30/03:00am 13.1 11.0 9.9 81 1.6 E 11 15 6 8 1015.8 1015.7 0.0
30/02:30am 12.6 10.2 10.0 84 1.3 ENE 13 15 7 8 1015.8 1015.7 0.0
30/02:00am 13.9 11.9 10.1 78 2.0 E 11 17 6 9 1016.3 1016.2 0.0
30/01:30am 14.1 11.8 10.3 78 2.0 ENE 13 17 7 9 1016.5 1016.4 0.0
30/01:00am 13.4 11.7 10.0 80 1.8 NE 9 11 5 6 1017.0 1016.9 0.0
30/12:30am 13.1 11.3 9.4 78 1.9 ENE 9 13 5 7 1016.9 1016.8 0.0
30/12:00am 15.3 14.6 10.1 71 2.7 ESE 4 9 2 5 1017.0 1016.9 0.0
 
Date/Time
CDT
Temp
°C
App
Temp
°C
Dew
Point
Rel
Hum
%
Delta-T
°C
Wind Press
QNH
hPa
Press
MSL
hPa
Rain
since 9 am
mm
Dir
 
Spd
km/h
Gust
km/h
Spd
kts
Gust
kts
29/11:30pm 15.5 15.0 10.9 74 2.4 SSE 4 7 2 4 1017.2 1017.1 0.0
29/11:00pm 15.8 13.7 11.2 74 2.5 SSW 13 19 7 10 1017.2 1017.1 0.0
29/10:30pm 15.6 13.8 10.8 73 2.5 SSW 11 13 6 7 1017.3 1017.2 0.0
29/10:00pm 15.7 13.9 10.7 72 2.7 SSW 11 15 6 8 1017.2 1017.1 0.0
29/09:30pm 16.3 13.6 10.4 68 3.1 SSW 15 19 8 10 1017.2 1017.1 0.0

Other Formats:

Comma delimited format used in spreadsheet applications
http://www.bom.gov.au/fwo/IDS60801/IDS60801.95676.axf

JavaScript Object Notation format (JSON) in row-major order
http://www.bom.gov.au/fwo/IDS60801/IDS60801.95676.json